Time;durP1;ratioP1;P1;durP2;ratioP2;P2;SDS_P1;SDS_P2;PMS_P1;PMS_P2;Temp;Humidity;BMP_temperature;BMP_pressure;BME280_temperature;BME280_humidity;BME280_pressure;Samples;Min_cycle;Max_cycle;Signal;HPM_P1;HPM_P2
2022/06/15 00:01:42;;;;;;;7.60;4.30;;;12.40;99.90;;;;;;4784955;29;20064;-68
2022/06/15 00:04:08;;;;;;;5.68;4.63;;;12.30;99.90;;;;;;4802186;29;20051;-67
2022/06/15 00:06:38;;;;;;;6.45;4.78;;;12.30;99.90;;;;;;4803773;29;20047;-70
2022/06/15 00:09:04;;;;;;;6.70;4.55;;;12.30;99.90;;;;;;4786875;29;20058;-69
2022/06/15 00:11:35;;;;;;;6.35;4.35;;;12.20;99.90;;;;;;4785318;29;20055;-68
2022/06/15 00:14:11;;;;;;;4.88;4.25;;;12.20;99.90;;;;;;4787511;29;20196;-67
2022/06/15 00:16:36;;;;;;;5.88;4.90;;;12.20;99.90;;;;;;4789149;29;20050;-68
2022/06/15 00:19:04;;;;;;;6.65;4.93;;;12.10;99.90;;;;;;4789365;29;20115;-68
2022/06/15 00:21:30;;;;;;;6.97;4.97;;;12.10;99.90;;;;;;4787317;29;20050;-68
2022/06/15 00:23:57;;;;;;;7.53;5.07;;;12.10;99.90;;;;;;4790172;29;20507;-67
2022/06/15 00:26:23;;;;;;;6.88;5.05;;;12.10;99.90;;;;;;4788442;29;20043;-69
2022/06/15 00:28:50;;;;;;;6.45;4.88;;;12.10;99.90;;;;;;4789778;29;20046;-69
2022/06/15 00:31:16;;;;;;;6.00;4.78;;;12.10;99.90;;;;;;4787770;29;20047;-68
2022/06/15 00:33:42;;;;;;;7.85;4.95;;;12.00;99.90;;;;;;4785638;29;20182;-68
2022/06/15 00:36:11;;;;;;;6.18;5.05;;;12.00;99.90;;;;;;4806091;29;20054;-69
2022/06/15 00:38:45;;;;;;;6.07;4.72;;;12.00;99.90;;;;;;4788533;29;20469;-69
2022/06/15 00:41:16;;;;;;;8.25;5.22;;;12.00;99.90;;;;;;4786611;29;20126;-69
2022/06/15 00:43:57;;;;;;;6.47;5.20;;;11.90;99.90;;;;;;4805104;29;20051;-68
2022/06/15 00:46:29;;;;;;;7.38;5.18;;;11.90;99.90;;;;;;4787875;29;20149;-69
2022/06/15 00:49:16;;;;;;;7.57;4.95;;;11.90;99.90;;;;;;4787654;29;20065;-69
2022/06/15 00:51:44;;;;;;;7.22;5.03;;;11.80;99.90;;;;;;4775036;29;20083;-67
2022/06/15 00:54:10;;;;;;;9.02;5.50;;;11.80;99.90;;;;;;4787888;29;20485;-69
2022/06/15 00:56:37;;;;;;;6.22;5.50;;;11.80;99.90;;;;;;4787649;29;20130;-70
2022/06/15 00:59:19;;;;;;;8.18;5.57;;;11.80;99.90;;;;;;4789411;29;20050;-69
2022/06/15 01:01:45;;;;;;;7.55;5.05;;;11.70;99.90;;;;;;4772937;29;20047;-69
2022/06/15 01:04:11;;;;;;;7.93;5.60;;;11.70;99.90;;;;;;4788450;29;20057;-69
2022/06/15 01:06:58;;;;;;;9.32;5.72;;;11.70;99.90;;;;;;4772345;30;20414;-69
2022/06/15 01:09:30;;;;;;;6.65;5.22;;;11.70;99.90;;;;;;4800365;29;20050;-70
2022/06/15 01:12:13;;;;;;;6.23;5.03;;;11.60;99.90;;;;;;4789352;29;20078;-68
2022/06/15 01:14:57;;;;;;;7.72;5.32;;;11.60;99.90;;;;;;4788259;29;20320;-67
2022/06/15 01:17:42;;;;;;;5.80;4.50;;;11.60;99.90;;;;;;4789873;29;20131;-67
2022/06/15 01:20:18;;;;;;;6.65;4.82;;;11.60;99.90;;;;;;4793473;29;20051;-69
2022/06/15 01:23:25;;;;;;;7.22;5.35;;;11.50;99.90;;;;;;4797312;29;20082;-68
2022/06/15 01:26:06;;;;;;;7.45;5.20;;;11.50;99.90;;;;;;4791213;29;20091;-66
2022/06/15 01:28:47;;;;;;;6.80;4.95;;;11.40;99.90;;;;;;4791860;29;20059;-68
2022/06/15 01:31:27;;;;;;;9.02;5.38;;;11.40;99.90;;;;;;4808598;29;20065;-67
2022/06/15 01:34:54;;;;;;;10.07;5.68;;;11.40;99.90;;;;;;4792202;29;20080;-70
2022/06/15 01:37:31;;;;;;;5.80;5.00;;;11.40;99.90;;;;;;4713737;30;20057;-68
2022/06/15 01:40:12;;;;;;;11.00;5.95;;;11.40;99.90;;;;;;4719931;30;20060;-67
2022/06/15 01:43:03;;;;;;;7.25;5.68;;;11.30;99.90;;;;;;4774267;29;20055;-69
2022/06/15 01:45:32;;;;;;;6.38;5.30;;;11.30;99.90;;;;;;4790995;29;20511;-67
2022/06/15 01:48:00;;;;;;;6.90;5.72;;;11.30;99.90;;;;;;4791544;29;20046;-67
2022/06/15 01:50:34;;;;;;;7.13;5.97;;;11.30;99.90;;;;;;4790814;29;20058;-67
2022/06/15 01:53:09;;;;;;;6.75;5.93;;;11.30;99.90;;;;;;4792401;29;20050;-69
2022/06/15 01:55:41;;;;;;;7.90;5.72;;;11.30;99.90;;;;;;4807059;29;20051;-69
2022/06/15 01:58:08;;;;;;;;;;;11.30;99.90;;;;;;4808889;29;20047;-69
2022/06/15 02:00:35;;;;;;;9.68;5.55;;;11.20;99.90;;;;;;4789895;29;20329;-70
2022/06/15 02:03:13;;;;;;;9.80;5.28;;;11.20;99.90;;;;;;4791240;29;20534;-70
2022/06/15 02:05:44;;;;;;;11.20;5.57;;;11.20;99.90;;;;;;4791924;29;20122;-68
2022/06/15 02:08:23;;;;;;;8.55;5.85;;;11.20;99.90;;;;;;4789129;29;20038;-69
2022/06/15 02:11:12;;;;;;;8.10;5.70;;;11.20;99.90;;;;;;4803000;29;20186;-68
2022/06/15 02:13:47;;;;;;;7.72;5.55;;;11.20;99.90;;;;;;4805606;29;20062;-70
2022/06/15 02:16:21;;;;;;;6.97;6.03;;;11.20;99.90;;;;;;4791659;29;20061;-70
2022/06/15 02:18:48;;;;;;;11.00;5.78;;;11.20;99.90;;;;;;4806027;29;20060;-69
2022/06/15 02:21:18;;;;;;;7.30;5.38;;;11.10;99.90;;;;;;4808389;29;20500;-68
2022/06/15 02:23:47;;;;;;;8.10;5.55;;;11.20;99.90;;;;;;4790642;29;20047;-68
2022/06/15 02:26:15;;;;;;;10.18;6.13;;;11.10;99.90;;;;;;4792549;29;20149;-68
2022/06/15 02:28:46;;;;;;;8.43;5.93;;;11.10;99.90;;;;;;4790966;29;20473;-67
2022/06/15 02:31:12;;;;;;;6.93;5.50;;;11.00;99.90;;;;;;4790825;29;20061;-69
2022/06/15 02:33:44;;;;;;;9.77;6.28;;;11.00;99.90;;;;;;4791476;29;20047;-69
2022/06/15 02:36:10;;;;;;;;;;;11.00;99.90;;;;;;4795540;29;20059;-68
2022/06/15 02:38:36;;;;;;;6.75;5.25;;;11.00;99.90;;;;;;4792437;29;19937;-70
2022/06/15 02:41:02;;;;;;;9.75;5.95;;;11.00;99.90;;;;;;4786890;29;20074;-69
2022/06/15 02:43:30;;;;;;;10.07;5.30;;;11.00;99.90;;;;;;4791575;29;20046;-70
2022/06/15 02:45:58;;;;;;;6.57;5.38;;;11.00;99.90;;;;;;4788366;29;20096;-69
2022/06/15 02:48:24;;;;;;;9.70;6.35;;;10.90;99.90;;;;;;4791689;29;20054;-69
2022/06/15 02:50:50;;;;;;;7.70;5.80;;;10.90;99.90;;;;;;4790489;29;20503;-67
2022/06/15 02:53:19;;;;;;;8.35;6.18;;;10.90;99.90;;;;;;4805679;29;20112;-68
2022/06/15 02:55:46;;;;;;;7.65;5.43;;;10.90;99.90;;;;;;4789979;29;20487;-69
2022/06/15 02:58:21;;;;;;;8.43;6.95;;;10.90;99.90;;;;;;4788635;29;20062;-69
2022/06/15 03:00:47;;;;;;;7.53;6.25;;;10.90;99.90;;;;;;4804797;29;20126;-70
2022/06/15 03:03:12;;;;;;;7.68;6.68;;;10.90;99.90;;;;;;4790649;29;20158;-70
2022/06/15 03:05:38;;;;;;;8.13;6.40;;;10.90;99.90;;;;;;4791571;29;20467;-69
2022/06/15 03:08:04;;;;;;;9.60;6.40;;;10.90;99.90;;;;;;4790077;29;20074;-69
2022/06/15 03:10:30;;;;;;;8.68;5.65;;;10.90;99.90;;;;;;4791376;29;20137;-67
2022/06/15 03:12:55;;;;;;;8.00;6.13;;;10.90;99.90;;;;;;4788623;29;20452;-70
2022/06/15 03:15:21;;;;;;;9.98;6.20;;;10.90;99.90;;;;;;4789102;29;20061;-70
2022/06/15 03:17:47;;;;;;;9.40;6.38;;;10.80;99.90;;;;;;4791129;29;20512;-69
2022/06/15 03:20:12;;;;;;;9.00;6.82;;;10.80;99.90;;;;;;4790094;29;20050;-67
2022/06/15 03:22:38;;;;;;;10.05;6.22;;;10.90;99.90;;;;;;4791374;29;20215;-70
2022/06/15 03:25:04;;;;;;;9.07;6.53;;;10.90;99.90;;;;;;4774093;29;20054;-68
2022/06/15 03:27:30;;;;;;;9.10;6.40;;;10.90;99.90;;;;;;4790188;29;20071;-69
2022/06/15 03:29:56;;;;;;;9.23;6.13;;;10.90;99.90;;;;;;4790773;29;20050;-68
2022/06/15 03:32:21;;;;;;;8.70;6.60;;;10.90;99.90;;;;;;4789096;29;20511;-68
2022/06/15 03:34:47;;;;;;;8.90;6.78;;;10.90;99.90;;;;;;4790231;29;20103;-70
2022/06/15 03:37:13;;;;;;;10.10;6.45;;;10.90;99.90;;;;;;4787966;29;20054;-70
2022/06/15 03:39:39;;;;;;;7.13;6.43;;;10.90;99.90;;;;;;4769845;29;20136;-68
2022/06/15 03:42:15;;;;;;;9.85;6.53;;;10.90;99.90;;;;;;4782275;29;20052;-69
2022/06/15 03:44:41;;;;;;;9.02;5.43;;;10.90;99.90;;;;;;4790191;29;20051;-68
2022/06/15 03:47:11;;;;;;;8.15;5.90;;;10.90;99.90;;;;;;4788967;29;20054;-69
2022/06/15 03:49:38;;;;;;;8.35;5.90;;;11.00;99.90;;;;;;4786837;29;20051;-67
2022/06/15 03:52:05;;;;;;;8.05;6.53;;;11.00;99.90;;;;;;4789774;29;20051;-70
2022/06/15 03:54:30;;;;;;;7.13;5.85;;;10.90;99.90;;;;;;4789193;29;20058;-68
2022/06/15 03:56:56;;;;;;;10.32;6.82;;;11.00;99.90;;;;;;4788079;29;20063;-68
2022/06/15 03:59:22;;;;;;;7.50;6.22;;;11.00;99.90;;;;;;4787960;29;20082;-70
2022/06/15 04:01:48;;;;;;;7.95;5.90;;;11.00;99.90;;;;;;4788768;29;20054;-68
2022/06/15 04:04:13;;;;;;;10.73;6.18;;;11.10;99.90;;;;;;4788712;29;20061;-67
2022/06/15 04:06:39;;;;;;;7.45;5.88;;;11.10;99.90;;;;;;4785570;29;20130;-68
2022/06/15 04:09:05;;;;;;;11.23;6.25;;;11.10;99.90;;;;;;4806270;29;20349;-70
2022/06/15 04:14:16;;;;;;;8.07;6.10;;;11.20;99.90;;;;;;4786282;29;20055;-67
2022/06/15 04:16:41;;;;;;;11.05;6.22;;;11.30;99.90;;;;;;4789423;29;20059;-68
2022/06/15 04:19:08;;;;;;;9.90;6.00;;;11.30;99.90;;;;;;4787238;29;20066;-69
2022/06/15 04:21:34;;;;;;;7.63;6.50;;;11.40;99.90;;;;;;4792795;29;20050;-68
2022/06/15 04:24:00;;;;;;;8.90;6.10;;;11.50;99.90;;;;;;4803601;29;20501;-67
2022/06/15 04:26:25;;;;;;;10.27;6.65;;;11.50;99.90;;;;;;4789183;29;20055;-67
2022/06/15 04:28:51;;;;;;;8.68;6.82;;;11.60;99.90;;;;;;4789172;29;20054;-68
2022/06/15 04:31:16;;;;;;;6.80;5.90;;;11.60;99.90;;;;;;4787747;29;20039;-69
2022/06/15 04:33:42;;;;;;;10.00;6.15;;;11.70;99.90;;;;;;4786960;29;20430;-68
2022/06/15 04:36:12;;;;;;;8.15;6.15;;;11.70;99.90;;;;;;4787597;29;20162;-70
2022/06/15 04:38:37;;;;;;;9.30;6.03;;;11.80;99.90;;;;;;4786316;29;20047;-70
2022/06/15 04:41:03;;;;;;;9.23;6.18;;;11.90;99.90;;;;;;4787900;29;20039;-70
2022/06/15 04:43:29;;;;;;;7.53;5.97;;;11.90;99.90;;;;;;4803709;29;20050;-68
2022/06/15 04:45:55;;;;;;;8.75;6.32;;;11.90;99.90;;;;;;4787099;29;20055;-69
2022/06/15 04:48:21;;;;;;;8.77;6.70;;;12.00;99.90;;;;;;4789193;29;20053;-69
2022/06/15 04:50:46;;;;;;;7.85;6.65;;;12.10;99.90;;;;;;4783922;29;20062;-70
2022/06/15 04:53:12;;;;;;;9.95;6.88;;;12.10;99.90;;;;;;4805538;29;20480;-68
2022/06/15 04:55:38;;;;;;;10.50;5.95;;;12.10;99.90;;;;;;4789146;29;20050;-70
2022/06/15 04:58:04;;;;;;;11.10;6.20;;;12.20;99.90;;;;;;4799798;29;20058;-69
2022/06/15 05:00:34;;;;;;;9.95;6.88;;;12.20;99.90;;;;;;4801698;29;20058;-70
2022/06/15 05:03:00;;;;;;;9.07;6.05;;;12.30;99.90;;;;;;4786859;29;20141;-70
2022/06/15 05:05:26;;;;;;;9.93;6.72;;;12.40;99.90;;;;;;4785027;29;20116;-69
2022/06/15 05:07:53;;;;;;;11.23;6.72;;;12.50;99.90;;;;;;4772733;29;20124;-68
2022/06/15 05:10:24;;;;;;;10.13;6.88;;;12.50;99.90;;;;;;4787127;29;20054;-70
2022/06/15 05:12:49;;;;;;;11.88;7.28;;;12.60;99.90;;;;;;4803957;29;20058;-70
2022/06/15 05:15:16;;;;;;;10.35;6.40;;;12.70;99.90;;;;;;4788202;29;20050;-69
2022/06/15 05:17:44;;;;;;;8.32;6.20;;;12.90;99.90;;;;;;4788289;29;20059;-71
2022/06/15 05:20:12;;;;;;;8.98;6.60;;;13.00;99.90;;;;;;4784233;29;20055;-69
2022/06/15 05:22:37;;;;;;;8.95;6.30;;;13.20;99.90;;;;;;4784763;29;20138;-67
2022/06/15 05:25:08;;;;;;;9.88;6.70;;;13.30;99.90;;;;;;4773659;29;20145;-68
2022/06/15 05:27:36;;;;;;;9.75;6.40;;;13.50;99.90;;;;;;4786896;29;20059;-68
2022/06/15 05:30:03;;;;;;;12.00;6.28;;;14.00;99.90;;;;;;4784871;29;20080;-67
2022/06/15 05:32:29;;;;;;;8.20;5.90;;;15.00;99.90;;;;;;4781393;29;20062;-68
2022/06/15 05:34:55;;;;;;;10.80;5.88;;;16.20;99.90;;;;;;4797991;29;20043;-69
2022/06/15 05:37:22;;;;;;;7.93;5.93;;;17.30;99.90;;;;;;4785293;29;20073;-67
2022/06/15 05:39:48;;;;;;;9.07;5.70;;;18.20;99.90;;;;;;4783461;29;20338;-69
2022/06/15 05:42:14;;;;;;;10.68;5.97;;;18.80;99.90;;;;;;4785401;29;20043;-69
2022/06/15 05:47:06;;;;;;;10.32;5.43;;;19.90;99.90;;;;;;4784038;29;20058;-68
2022/06/15 05:49:34;;;;;;;10.88;5.20;;;20.50;99.90;;;;;;4783870;29;20105;-68
2022/06/15 05:52:01;;;;;;;6.93;4.72;;;21.00;99.90;;;;;;4789125;29;20047;-67
2022/06/15 05:54:26;;;;;;;5.70;4.55;;;21.30;99.90;;;;;;4791846;29;20057;-69
2022/06/15 05:56:53;;;;;;;7.88;4.35;;;21.30;99.90;;;;;;4791733;29;20059;-68
2022/06/15 05:59:18;;;;;;;7.20;4.50;;;21.50;99.90;;;;;;4774196;29;20381;-70
2022/06/15 06:01:44;;;;;;;5.75;3.92;;;21.60;99.90;;;;;;4776247;29;20053;-70
2022/06/15 06:04:22;;;;;;;6.47;4.10;;;22.10;99.90;;;;;;4791303;29;20062;-69
2022/06/15 06:06:48;;;;;;;10.23;4.43;;;22.10;99.90;;;;;;4776035;29;20042;-66
2022/06/15 06:09:14;;;;;;;5.10;3.42;;;22.50;99.90;;;;;;4808300;29;20055;-66
2022/06/15 06:11:40;;;;;;;7.57;4.32;;;22.30;99.90;;;;;;4776567;29;20058;-68
2022/06/15 06:14:08;;;;;;;6.30;3.67;;;22.50;99.90;;;;;;4806220;29;20047;-68
2022/06/15 06:16:33;;;;;;;7.15;3.80;;;22.40;99.90;;;;;;4807201;29;20052;-68
2022/06/15 06:18:59;;;;;;;4.28;3.60;;;22.40;99.90;;;;;;4791453;29;20043;-66
2022/06/15 06:21:24;;;;;;;8.27;3.70;;;22.50;99.90;;;;;;4791982;29;20484;-67
2022/06/15 06:23:50;;;;;;;7.38;3.60;;;22.30;99.90;;;;;;4807601;29;20500;-66
2022/06/15 06:26:31;;;;;;;5.28;3.03;;;22.50;99.90;;;;;;4791143;29;20042;-67
2022/06/15 06:28:57;;;;;;;42.65;4.72;;;22.60;94.10;;;;;;4791764;29;20050;-65
2022/06/15 06:31:22;;;;;;;5.60;3.13;;;22.50;99.90;;;;;;4791407;29;20489;-66
2022/06/15 06:33:49;;;;;;;5.00;2.90;;;22.60;97.60;;;;;;4808171;29;20090;-67
2022/06/15 06:36:22;;;;;;;5.40;3.25;;;22.60;97.20;;;;;;4791590;29;20473;-68
2022/06/15 06:38:48;;;;;;;6.03;3.10;;;22.90;87.60;;;;;;4808404;29;20085;-66
2022/06/15 06:41:27;;;;;;;6.53;3.72;;;22.80;95.00;;;;;;4790513;29;20362;-68
2022/06/15 06:43:53;;;;;;;7.30;3.25;;;22.00;96.20;;;;;;4785952;29;20069;-67
2022/06/15 06:46:19;;;;;;;4.78;3.22;;;21.10;99.90;;;;;;4790195;29;20404;-67
2022/06/15 06:48:45;;;;;;;5.90;3.05;;;20.50;99.90;;;;;;4807941;29;20065;-66
2022/06/15 06:51:11;;;;;;;5.05;2.97;;;20.00;99.90;;;;;;4787581;29;20047;-68
2022/06/15 06:53:37;;;;;;;5.13;3.05;;;19.60;99.90;;;;;;4806518;29;20373;-67
2022/06/15 06:56:05;;;;;;;6.40;3.30;;;19.40;99.90;;;;;;4788288;29;20046;-68
2022/06/15 06:58:31;;;;;;;11.02;3.25;;;19.20;99.90;;;;;;4775455;29;20142;-67
2022/06/15 07:00:56;;;;;;;3.20;2.85;;;19.10;99.90;;;;;;4789809;29;20149;-68
2022/06/15 07:03:22;;;;;;;4.10;3.03;;;19.00;99.90;;;;;;4806473;29;20049;-66
2022/06/15 07:05:48;;;;;;;6.07;3.10;;;19.10;99.90;;;;;;4790142;29;20047;-66
2022/06/15 07:08:15;;;;;;;5.55;2.75;;;19.10;99.90;;;;;;4806831;29;20059;-68
2022/06/15 07:10:41;;;;;;;6.05;3.03;;;19.20;99.90;;;;;;4784104;29;20054;-67
2022/06/15 07:13:07;;;;;;;4.97;2.70;;;19.20;99.90;;;;;;4799066;29;20051;-68
2022/06/15 07:15:33;;;;;;;4.65;2.67;;;19.30;99.90;;;;;;4789291;29;20167;-68
2022/06/15 07:18:03;;;;;;;2.95;2.10;;;19.30;99.90;;;;;;4787830;29;20129;-68
2022/06/15 07:20:30;;;;;;;4.63;2.53;;;19.40;99.90;;;;;;4773287;30;20055;-67
2022/06/15 07:22:56;;;;;;;5.65;2.45;;;19.50;99.90;;;;;;4773165;30;20393;-68
2022/06/15 07:25:22;;;;;;;4.65;2.63;;;19.60;99.90;;;;;;4789287;30;20051;-66
2022/06/15 07:27:48;;;;;;;5.10;2.38;;;19.60;99.90;;;;;;4773168;30;20047;-68
2022/06/15 07:30:20;;;;;;;5.40;2.40;;;19.60;99.90;;;;;;4776587;29;20400;-67
2022/06/15 07:32:46;;;;;;;4.43;2.25;;;19.60;99.90;;;;;;4790393;29;20388;-66
2022/06/15 07:35:18;;;;;;;3.33;2.05;;;19.70;99.90;;;;;;4791210;29;20073;-67
2022/06/15 07:37:44;;;;;;;5.18;2.55;;;19.80;99.90;;;;;;4790565;29;20055;-68
2022/06/15 07:40:11;;;;;;;2.97;2.00;;;20.00;99.90;;;;;;4791415;29;20133;-66
2022/06/15 07:42:37;;;;;;;4.38;2.15;;;20.10;99.90;;;;;;4806113;29;20058;-67
2022/06/15 07:45:03;;;;;;;4.78;1.80;;;20.10;99.90;;;;;;4806503;29;20480;-68
2022/06/15 07:50:12;;;;;;;5.78;2.30;;;20.40;99.90;;;;;;4787493;29;20496;-66
2022/06/15 07:52:41;;;;;;;5.20;1.90;;;20.30;99.90;;;;;;4806418;29;20058;-67
2022/06/15 07:55:10;;;;;;;4.38;1.77;;;20.20;99.90;;;;;;4790275;29;20115;-67
2022/06/15 07:57:36;;;;;;;3.85;1.80;;;20.30;97.60;;;;;;4775544;29;20057;-68
2022/06/15 08:00:05;;;;;;;4.05;2.15;;;20.20;96.10;;;;;;4790609;29;20080;-68
2022/06/15 08:02:31;;;;;;;3.83;1.70;;;20.20;95.70;;;;;;4774318;29;20480;-67
2022/06/15 08:04:56;;;;;;;3.17;1.63;;;20.20;93.90;;;;;;4774952;29;20074;-67
2022/06/15 08:07:23;;;;;;;4.05;1.75;;;20.40;96.70;;;;;;4805473;29;20485;-67
2022/06/15 08:09:48;;;;;;;4.32;1.80;;;20.50;95.20;;;;;;4806539;29;20119;-68
2022/06/15 08:12:19;;;;;;;4.80;1.60;;;20.80;91.70;;;;;;4774446;29;20505;-67
2022/06/15 08:14:55;;;;;;;5.83;1.70;;;21.00;89.00;;;;;;4802925;29;20054;-66
2022/06/15 08:17:22;;;;;;;5.00;2.00;;;21.00;73.80;;;;;;4786583;29;20115;-67
2022/06/15 08:19:54;;;;;;;5.88;2.03;;;20.90;84.30;;;;;;4806202;29;20055;-66
2022/06/15 08:22:20;;;;;;;3.10;1.73;;;20.80;87.50;;;;;;4789347;29;20046;-66
2022/06/15 08:24:47;;;;;;;4.03;1.65;;;20.60;90.70;;;;;;4790147;29;20137;-67
2022/06/15 08:27:15;;;;;;;2.95;1.58;;;20.50;88.10;;;;;;4806048;29;20089;-68
2022/06/15 08:29:41;;;;;;;6.05;2.10;;;20.50;87.30;;;;;;4789948;29;20054;-66
2022/06/15 08:32:09;;;;;;;4.55;1.70;;;20.70;82.90;;;;;;4805695;29;20084;-68
2022/06/15 08:34:37;;;;;;;3.65;1.70;;;20.70;78.10;;;;;;4805623;29;20078;-69
2022/06/15 08:37:06;;;;;;;4.18;1.73;;;20.60;75.90;;;;;;4805343;29;20058;-68
2022/06/15 08:39:31;;;;;;;3.67;1.50;;;20.60;74.70;;;;;;4804201;29;20090;-68
2022/06/15 08:42:28;;;;;;;10.70;2.58;;;20.40;75.00;;;;;;4805590;29;20086;-67
2022/06/15 08:45:01;;;;;;;6.13;1.77;;;20.60;74.20;;;;;;4805986;29;20062;-67
2022/06/15 08:47:44;;;;;;;2.80;1.58;;;20.90;75.10;;;;;;4789333;29;20094;-68
2022/06/15 08:50:36;;;;;;;3.47;1.90;;;21.10;73.10;;;;;;4775123;29;20148;-67
2022/06/15 08:53:30;;;;;;;4.15;1.95;;;20.90;70.30;;;;;;4805425;29;20050;-68
2022/06/15 08:56:10;;;;;;;3.72;1.80;;;20.80;70.40;;;;;;4805675;29;20093;-67
2022/06/15 08:59:21;;;;;;;6.07;1.70;;;21.00;71.50;;;;;;4774048;29;20062;-67
2022/06/15 09:02:09;;;;;;;4.65;1.60;;;21.30;73.40;;;;;;4768045;29;20051;-68
2022/06/15 09:04:53;;;;;;;2.42;1.40;;;21.70;71.90;;;;;;4805895;29;20055;-68
2022/06/15 09:07:30;;;;;;;4.53;1.77;;;22.00;66.20;;;;;;4805610;29;20069;-67
2022/06/15 09:10:27;;;;;;;2.63;1.60;;;22.10;65.90;;;;;;4789565;29;20429;-68
2022/06/15 09:13:20;;;;;;;3.00;1.50;;;22.30;65.10;;;;;;4788345;29;20055;-68
2022/06/15 09:16:08;;;;;;;8.73;2.00;;;22.40;63.80;;;;;;4805126;29;20075;-68
2022/06/15 09:19:06;;;;;;;4.82;1.90;;;22.60;63.70;;;;;;4778556;29;20058;-67
2022/06/15 09:21:36;;;;;;;3.85;1.90;;;22.70;63.00;;;;;;4804705;29;20093;-69
2022/06/15 09:24:16;;;;;;;3.17;1.50;;;22.70;63.00;;;;;;4773809;29;20131;-67
2022/06/15 09:26:58;;;;;;;4.75;1.98;;;22.70;62.10;;;;;;4804258;29;20400;-67
2022/06/15 09:29:31;;;;;;;3.50;1.80;;;22.80;61.40;;;;;;4807508;29;20556;-69
2022/06/15 09:32:11;;;;;;;4.88;1.80;;;22.60;62.50;;;;;;4790961;29;20050;-67
2022/06/15 09:34:44;;;;;;;4.38;2.33;;;22.50;63.90;;;;;;4807907;29;20107;-67
2022/06/15 09:37:20;;;;;;;4.00;1.80;;;22.20;64.00;;;;;;4807541;29;20055;-68
2022/06/15 09:39:45;;;;;;;3.10;1.80;;;21.90;64.60;;;;;;4807946;29;20062;-68
2022/06/15 09:42:20;;;;;;;5.55;1.83;;;21.70;65.50;;;;;;4790931;29;20054;-67
2022/06/15 09:45:04;;;;;;;3.55;1.60;;;21.80;65.30;;;;;;4789578;30;20086;-69
2022/06/15 09:47:48;;;;;;;2.85;1.92;;;21.70;65.90;;;;;;4758100;30;20051;-68
2022/06/15 09:50:16;;;;;;;3.50;1.90;;;21.60;65.60;;;;;;4773202;30;20489;-66
2022/06/15 09:53:01;;;;;;;2.97;1.80;;;21.30;66.40;;;;;;4773073;30;20105;-67
2022/06/15 09:55:46;;;;;;;2.00;1.60;;;21.20;67.40;;;;;;4773273;30;20055;-67
2022/06/15 09:58:15;;;;;;;6.38;2.03;;;21.20;67.60;;;;;;4789281;30;20143;-69
2022/06/15 10:00:42;;;;;;;4.93;2.20;;;21.30;67.00;;;;;;4802222;29;20058;-69
2022/06/15 10:03:28;;;;;;;4.55;2.00;;;21.50;66.80;;;;;;4790846;29;20549;-66
2022/06/15 10:05:59;;;;;;;4.10;1.92;;;21.50;65.70;;;;;;4791008;29;20058;-68
2022/06/15 10:08:25;;;;;;;5.35;2.08;;;21.40;67.50;;;;;;4807940;29;20138;-68
2022/06/15 10:10:57;;;;;;;7.88;2.00;;;21.60;68.90;;;;;;4755918;29;1074566;-67
2022/06/15 10:13:33;;;;;;;3.88;1.83;;;21.60;69.60;;;;;;4791285;29;20055;-67
2022/06/15 10:16:24;;;;;;;2.53;2.05;;;21.50;67.20;;;;;;4807288;29;20051;-66
2022/06/15 10:18:53;;;;;;;4.00;1.95;;;21.50;67.30;;;;;;4806404;29;20126;-68
2022/06/15 10:21:31;;;;;;;3.10;1.88;;;21.20;67.70;;;;;;4807580;29;20508;-69
2022/06/15 10:24:03;;;;;;;2.92;2.00;;;21.10;67.90;;;;;;4808674;29;20373;-67
2022/06/15 10:26:34;;;;;;;3.30;1.90;;;21.20;69.40;;;;;;4791736;29;20518;-67
2022/06/15 10:29:22;;;;;;;3.58;2.00;;;21.40;69.50;;;;;;4791428;29;20051;-67
2022/06/15 10:32:17;;;;;;;4.95;2.10;;;21.60;66.60;;;;;;4775961;29;20392;-68
2022/06/15 10:34:45;;;;;;;4.18;1.92;;;21.40;65.30;;;;;;4789048;29;20102;-69
2022/06/15 10:37:26;;;;;;;2.50;1.80;;;21.50;67.30;;;;;;4791619;29;20059;-68
2022/06/15 10:39:55;;;;;;;3.00;1.95;;;21.60;67.10;;;;;;4803949;29;20103;-68
2022/06/15 10:42:28;;;;;;;3.97;1.88;;;21.90;67.20;;;;;;4786755;29;20047;-68
2022/06/15 10:45:00;;;;;;;2.88;2.13;;;22.00;66.90;;;;;;4790705;29;20073;-68
2022/06/15 10:47:31;;;;;;;;;;;21.90;66.80;;;;;;4791402;29;20093;-68
2022/06/15 10:50:04;;;;;;;4.53;1.90;;;21.90;65.20;;;;;;4791967;29;19924;-69
2022/06/15 10:52:44;;;;;;;3.47;2.17;;;21.90;68.00;;;;;;4807600;29;20349;-68
2022/06/15 11:02:07;;;;;;;4.32;2.00;;;22.20;65.50;;;;;;4786153;29;20135;-68
2022/06/15 11:04:45;;;;;;;3.08;1.90;;;22.30;66.40;;;;;;4791481;29;20059;-67
2022/06/15 11:07:21;;;;;;;2.60;1.92;;;22.50;65.00;;;;;;4788707;29;20051;-69
2022/06/15 11:09:55;;;;;;;4.13;2.08;;;22.50;63.30;;;;;;4808907;29;20062;-68
2022/06/15 11:12:36;;;;;;;4.03;2.42;;;22.40;64.10;;;;;;4790544;29;20058;-67
2022/06/15 11:15:14;;;;;;;3.60;1.77;;;22.20;63.40;;;;;;4805695;29;20488;-69
2022/06/15 11:18:03;;;;;;;3.20;1.85;;;22.20;63.60;;;;;;4805561;29;20129;-69
2022/06/15 11:20:51;;;;;;;3.97;2.78;;;22.30;65.00;;;;;;4791004;29;20055;-69
2022/06/15 11:23:23;;;;;;;4.97;1.98;;;22.50;65.70;;;;;;4807147;29;20051;-67
2022/06/15 11:25:51;;;;;;;;;;;22.70;65.60;;;;;;4790273;29;20501;-68
2022/06/15 11:28:29;;;;;;;3.78;2.10;;;22.80;65.30;;;;;;4807101;29;19964;-69
2022/06/15 11:30:59;;;;;;;4.43;2.10;;;22.90;62.40;;;;;;4789665;29;20063;-68
2022/06/15 11:33:37;;;;;;;4.68;2.00;;;22.90;62.90;;;;;;4806667;29;20073;-69
2022/06/15 11:36:26;;;;;;;4.68;2.17;;;22.90;62.60;;;;;;4790692;29;20058;-69
2022/06/15 11:38:58;;;;;;;2.45;1.77;;;23.00;61.40;;;;;;4789794;29;20067;-69
2022/06/15 11:41:28;;;;;;;4.20;2.05;;;22.90;62.10;;;;;;4790585;29;20502;-67
2022/06/15 11:43:56;;;;;;;2.60;1.52;;;22.90;61.40;;;;;;4790772;29;20085;-69
2022/06/15 11:46:46;;;;;;;3.83;1.90;;;22.90;61.70;;;;;;4788940;29;20055;-69
2022/06/15 11:49:35;;;;;;;4.57;1.67;;;23.20;60.50;;;;;;4787818;30;20063;-69
2022/06/15 11:52:13;;;;;;;5.60;1.92;;;23.30;60.40;;;;;;4789337;29;20061;-68
2022/06/15 11:55:08;;;;;;;4.03;1.60;;;23.30;59.60;;;;;;4790127;29;20059;-67
2022/06/15 11:57:55;;;;;;;3.45;1.38;;;23.40;59.70;;;;;;4788030;29;20189;-68
2022/06/15 12:00:31;;;;;;;2.65;1.40;;;23.50;59.30;;;;;;4801551;29;20138;-69
2022/06/15 12:03:18;;;;;;;3.40;2.00;;;23.50;58.80;;;;;;4805317;29;20131;-68
2022/06/15 12:06:29;;;;;;;3.60;1.80;;;23.70;58.20;;;;;;4789855;29;20058;-68
2022/06/15 12:09:25;;;;;;;4.90;1.75;;;23.60;58.70;;;;;;4791576;29;20078;-67
2022/06/15 12:15:31;;;;;;;4.35;1.70;;;23.70;58.30;;;;;;4788512;29;20062;-68
2022/06/15 12:18:17;;;;;;;3.88;2.08;;;23.50;58.10;;;;;;4788988;29;20104;-67
2022/06/15 12:20:52;;;;;;;3.40;1.75;;;23.20;58.20;;;;;;4789786;29;20046;-67
2022/06/15 12:23:48;;;;;;;4.53;2.33;;;23.20;59.40;;;;;;4789604;29;20043;-68
2022/06/15 12:26:49;;;;;;;4.28;2.00;;;23.00;59.50;;;;;;4801548;29;20391;-68
2022/06/15 12:29:33;;;;;;;4.05;1.80;;;22.90;60.30;;;;;;4784223;29;20038;-69
2022/06/15 12:32:06;;;;;;;3.35;1.67;;;23.00;59.50;;;;;;4805086;29;20188;-69
2022/06/15 12:34:54;;;;;;;3.53;2.03;;;23.10;59.80;;;;;;4805838;29;20100;-69
2022/06/15 12:37:20;;;;;;;3.40;1.92;;;23.30;60.00;;;;;;4788930;29;20082;-68
2022/06/15 12:40:13;;;;;;;4.32;1.90;;;23.40;59.40;;;;;;4805120;29;20090;-66
2022/06/15 12:42:44;;;;;;;2.65;1.95;;;23.50;59.40;;;;;;4789952;29;20050;-69
2022/06/15 12:45:23;;;;;;;3.80;1.90;;;23.60;58.90;;;;;;4789445;29;20059;-70
2022/06/15 12:47:55;;;;;;;3.70;1.90;;;23.60;58.10;;;;;;4788871;29;20062;-69
2022/06/15 12:51:22;;;;;;;2.88;1.60;;;23.70;58.00;;;;;;4789513;29;20068;-67
2022/06/15 12:54:07;;;;;;;2.85;1.48;;;23.70;57.50;;;;;;4730657;29;20421;-70
2022/06/15 12:57:06;;;;;;;2.22;1.45;;;23.70;58.20;;;;;;4805652;29;20061;-67
2022/06/15 12:59:37;;;;;;;4.20;1.90;;;23.60;57.80;;;;;;4774126;29;20078;-68
2022/06/15 13:02:31;;;;;;;4.47;1.55;;;23.30;59.10;;;;;;4787844;29;20047;-67
2022/06/15 13:05:14;;;;;;;3.97;1.70;;;23.40;59.50;;;;;;4805858;29;20086;-68
2022/06/15 13:07:41;;;;;;;2.67;2.03;;;23.70;58.80;;;;;;4805162;29;20063;-68
2022/06/15 13:10:07;;;;;;;6.03;1.80;;;23.90;58.20;;;;;;4788854;29;20066;-71
2022/06/15 13:12:42;;;;;;;3.72;1.73;;;24.00;57.30;;;;;;4789161;29;20058;-68
2022/06/15 13:15:20;;;;;;;5.50;1.83;;;24.00;57.00;;;;;;4774263;29;20054;-67
2022/06/15 13:18:08;;;;;;;4.05;1.75;;;24.10;56.80;;;;;;4788541;29;20103;-67
2022/06/15 13:20:46;;;;;;;3.13;1.67;;;24.30;56.40;;;;;;4806070;29;20373;-66
2022/06/15 13:23:25;;;;;;;3.38;1.73;;;24.30;57.00;;;;;;4774335;29;20054;-68
2022/06/15 13:26:00;;;;;;;2.22;1.70;;;24.10;55.60;;;;;;4774621;29;20177;-69
2022/06/15 13:28:32;;;;;;;2.35;1.50;;;23.90;56.50;;;;;;4789304;29;20059;-69
2022/06/15 13:31:02;;;;;;;3.72;1.90;;;23.50;57.00;;;;;;4805138;29;20070;-70
2022/06/15 13:33:59;;;;;;;4.22;1.80;;;23.20;57.40;;;;;;4789055;29;20063;-69
2022/06/15 13:36:25;;;;;;;2.90;1.73;;;22.90;56.90;;;;;;4805421;29;20058;-68